Observation data for Olton on 03/24/2019      Previous  Date  Next       Current Mesonet Observations  Soil Data  Daily Summary Page  Observations in Plain Language
KONS 240505Z 26011KT 08/M03 A3001 RMK A01 T00811034  RH  045%=      5-min Rain = 0
KONS 240510Z 25010KT 08/M03 A3001 RMK A01 T00811033  RH  045%=      5-min Rain = 0
KONS 240515Z 25009KT 08/M03 A3001 RMK A01 T00771033  RH  046%=      5-min Rain = 0
KONS 240520Z 25010KT 08/M04 A3001 RMK A01 T00781036  RH  045%=      5-min Rain = 0
KONS 240525Z 25010KT 08/M04 A3001 RMK A01 T00771036  RH  045%=      5-min Rain = 0
KONS 240530Z 25010KT 08/M04 A3001 RMK A01 T00761037  RH  045%=      5-min Rain = 0
KONS 240535Z 25008KT 07/M04 A3001 RMK A01 T00741035  RH  047%=      5-min Rain = 0
KONS 240540Z 24008KT 07/M03 A3001 RMK A01 T00711033  RH  048%=      5-min Rain = 0
KONS 240545Z 24008KT 07/M03 A3001 RMK A01 T00671031  RH  050%=      5-min Rain = 0
KONS 240550Z 24009KT 07/M03 A3001 RMK A01 T00661033  RH  050%=      5-min Rain = 0
KONS 240555Z 24009KT 07/M03 A3001 RMK A01 T00671032  RH  050%=      5-min Rain = 0
KONS 240600Z 24009KT 06/M03 A3001 RMK A01 T00641030  RH  052%=      5-min Rain = 0
KONS 240605Z 25010KT 06/M03 A3001 RMK A01 T00641031  RH  051%=      5-min Rain = 0
KONS 240610Z 25009KT 06/M03 A3001 RMK A01 T00641030  RH  052%=      5-min Rain = 0
KONS 240615Z 25009KT 06/M03 A3001 RMK A01 T00611031  RH  052%=      5-min Rain = 0
KONS 240620Z 24008KT 06/M03 A30 RMK A01 T00611031  RH  052%=      5-min Rain = 0
KONS 240625Z 24009KT 06/M03 A30 RMK A01 T00581029  RH  054%=      5-min Rain = 0
KONS 240630Z 24010KT 06/M03 A30 RMK A01 T00591030  RH  053%=      5-min Rain = 0
KONS 240635Z 24011KT 07/M03 A30 RMK A01 T00661034  RH  049%=      5-min Rain = 0
KONS 240640Z 25010KT 07/M04 A30 RMK A01 T00711035  RH  047%=      5-min Rain = 0
KONS 240645Z 25010KT 07/M03 A30 RMK A01 T00711034  RH  048%=      5-min Rain = 0
KONS 240650Z 25010KT 07/M03 A30 RMK A01 T00671034  RH  049%=      5-min Rain = 0
KONS 240655Z 25010KT 07/M04 A30 RMK A01 T00701036  RH  047%=      5-min Rain = 0
KONS 240700Z 25009KT 07/M04 A30 RMK A01 T00701036  RH  047%=      5-min Rain = 0
KONS 240705Z 25009KT 07/M04 A30 RMK A01 T00721039  RH  046%=      5-min Rain = 0
KONS 240710Z 25010KT 08/M04 A30 RMK A01 T00751039  RH  045%=      5-min Rain = 0
KONS 240715Z 25010KT 07/M04 A30 RMK A01 T00741038  RH  045%=      5-min Rain = 0
KONS 240720Z 25010KT 07/M04 A30 RMK A01 T00731037  RH  046%=      5-min Rain = 0
KONS 240725Z 28009KT 07/M03 A3001 RMK A01 T00701034  RH  048%=      5-min Rain = 0
KONS 240730Z 30008KT 06/M03 A3001 RMK A01 T00621030  RH  052%=      5-min Rain = 0
KONS 240735Z 30009KT 06/M03 A3001 RMK A01 T00591029  RH  054%=      5-min Rain = 0
KONS 240740Z 30009KT 06/M03 A3001 RMK A01 T00611027  RH  054%=      5-min Rain = 0
KONS 240745Z 30009KT 06/M03 A3001 RMK A01 T00601026  RH  055%=      5-min Rain = 0
KONS 240750Z 29009KT 06/M03 A3001 RMK A01 T00611028  RH  054%=      5-min Rain = 0
KONS 240755Z 30009KT 06/M03 A3001 RMK A01 T00621028  RH  053%=      5-min Rain = 0
KONS 240800Z 29009KT 06/M03 A3001 RMK A01 T00611026  RH  054%=      5-min Rain = 0
KONS 240805Z 29009KT 06/M03 A3001 RMK A01 T00631028  RH  052%=      5-min Rain = 0
KONS 240810Z 29008KT 07/M03 A3001 RMK A01 T00651029  RH  052%=      5-min Rain = 0
KONS 240815Z 29008KT 06/M03 A3001 RMK A01 T00631029  RH  052%=      5-min Rain = 0
KONS 240820Z 30009KT 06/M03 A3002 RMK A01 T00631029  RH  052%=      5-min Rain = 0
KONS 240825Z 30008KT 06/M03 A3002 RMK A01 T00621027  RH  053%=      5-min Rain = 0
KONS 240830Z 30007KT 06/M03 A3002 RMK A01 T00581025  RH  056%=      5-min Rain = 0
KONS 240835Z 30007KT 06/M02 A3002 RMK A01 T00551024  RH  057%=      5-min Rain = 0
KONS 240840Z 30008KT 05/M02 A3001 RMK A01 T00541023  RH  058%=      5-min Rain = 0
KONS 240845Z 30007KT 05/M02 A3001 RMK A01 T00541023  RH  059%=      5-min Rain = 0
KONS 240850Z 30007KT 05/M02 A3001 RMK A01 T00531023  RH  058%=      5-min Rain = 0
KONS 240855Z 30007KT 05/M02 A3001 RMK A01 T00521023  RH  059%=      5-min Rain = 0
KONS 240900Z 30007KT 05/M02 A3001 RMK A01 T00511023  RH  060%=      5-min Rain = 0
KONS 240905Z 30007KT 05/M02 A3001 RMK A01 T00491022  RH  061%=      5-min Rain = 0
KONS 240910Z 30007KT 05/M02 A3001 RMK A01 T00491022  RH  061%=      5-min Rain = 0
KONS 240915Z 30007KT 05/M02 A3001 RMK A01 T00491022  RH  061%=      5-min Rain = 0
KONS 240920Z 31008KT 05/M02 A3001 RMK A01 T00491022  RH  061%=      5-min Rain = 0
KONS 240925Z 32010KT 05/M02 A3001 RMK A01 T00481022  RH  061%=      5-min Rain = 0
KONS 240930Z 32009KT 05/M03 A3001 RMK A01 T00491026  RH  059%=      5-min Rain = 0
KONS 240935Z 31008KT 05/M03 A3001 RMK A01 T00501029  RH  057%=      5-min Rain = 0
KONS 240940Z 32009KT 05/M03 A3001 RMK A01 T00521030  RH  056%=      5-min Rain = 0
KONS 240945Z 32009KT 05/M03 A3001 RMK A01 T00521030  RH  056%=      5-min Rain = 0
KONS 240950Z 33008KT 05/M03 A3001 RMK A01 T00511029  RH  057%=      5-min Rain = 0
KONS 240955Z 33009KT 05/M03 A3001 RMK A01 T00511029  RH  057%=      5-min Rain = 0
KONS 241000Z 34009KT 05/M03 A3001 RMK A01 T00521028  RH  057%=      5-min Rain = 0
KONS 241005Z 33011KT 06/M02 A3001 RMK A01 T00571024  RH  057%=      5-min Rain = 0
KONS 241010Z 32012KT 06/M02 A3002 RMK A01 T00621017  RH  057%=      5-min Rain = 0
KONS 241015Z 32011KT 06/M01 A3002 RMK A01 T00631014  RH  058%=      5-min Rain = 0
KONS 241020Z 33010KT 06/M01 A3002 RMK A01 T00591013  RH  061%=      5-min Rain = 0
KONS 241025Z 33010KT 06/M01 A3002 RMK A01 T00571010  RH  063%=      5-min Rain = 0
KONS 241030Z 33010KT 06/M01 A3002 RMK A01 T00561008  RH  064%=      5-min Rain = 0
KONS 241035Z 34009KT 06/M01 A3002 RMK A01 T00551006  RH  065%=      5-min Rain = 0
KONS 241040Z 34009KT 05/M00 A3002 RMK A01 T00531004  RH  067%=      5-min Rain = 0
KONS 241045Z 34009KT 05/00 A3002 RMK A01 T005200-0  RH  070%=      5-min Rain = 0
KONS 241050Z 34010KT 05/00 A3002 RMK A01 T00530004  RH  072%=      5-min Rain = 0
KONS 241055Z 34010KT 05/01 A3003 RMK A01 T00530006  RH  073%=      5-min Rain = 0
KONS 241100Z 33010KT 05/01 A3003 RMK A01 T00530008  RH  074%=      5-min Rain = 0
KONS 241105Z 32011KT 05/01 A3004 RMK A01 T00510007  RH  074%=      5-min Rain = 0
KONS 241110Z 32011KT 05/01 A3004 RMK A01 T00490005  RH  074%=      5-min Rain = 0
KONS 241115Z 33011KT 05/01 A3003 RMK A01 T00470005  RH  075%=      5-min Rain = 0
KONS 241120Z 33011KT 05/01 A3003 RMK A01 T00450006  RH  077%=      5-min Rain = 0
KONS 241125Z 33011KT 04/01 A3003 RMK A01 T00440007  RH  078%=      5-min Rain = 0
KONS 241130Z 34010KT 04/01 A3004 RMK A01 T00430007  RH  078%=      5-min Rain = 0
KONS 241135Z 34010KT 04/01 A3004 RMK A01 T00420008  RH  079%=      5-min Rain = 0
KONS 241140Z 34009KT 04/01 A3004 RMK A01 T00410008  RH  080%=      5-min Rain = 0
KONS 241145Z 34009KT 04/01 A3004 RMK A01 T00400008  RH  081%=      5-min Rain = 0
KONS 241150Z 34009KT 04/01 A3004 RMK A01 T00390009  RH  082%=      5-min Rain = 0
KONS 241155Z 34010KT 04/01 A3004 RMK A01 T00400011  RH  083%=      5-min Rain = 0
KONS 241200Z 34009KT 04/01 A3004 RMK A01 T00390011  RH  083%=      5-min Rain = 0
KONS 241205Z 34010KT 04/01 A3004 RMK A01 T00380011  RH  084%=      5-min Rain = 0
KONS 241210Z 34010KT 04/01 A3004 RMK A01 T00370011  RH  084%=      5-min Rain = 0
KONS 241215Z 34010KT 04/01 A3004 RMK A01 T00370011  RH  084%=      5-min Rain = 0
KONS 241220Z 34011KT 04/01 A3004 RMK A01 T00370011  RH  085%=      5-min Rain = 0
KONS 241225Z 34011KT 04/01 A3004 RMK A01 T00360012  RH  085%=      5-min Rain = 0
KONS 241230Z 35011KT 04/01 A3004 RMK A01 T00370012  RH  085%=      5-min Rain = 0
KONS 241235Z 35011KT 04/01 A3004 RMK A01 T00370012  RH  085%=      5-min Rain = 0
KONS 241240Z 35011KT 04/01 A3005 RMK A01 T00360012  RH  085%=      5-min Rain = 0
KONS 241245Z 35009KT 04/01 A3005 RMK A01 T00360012  RH  085%=      5-min Rain = 0
KONS 241250Z 35008KT 04/01 A3005 RMK A01 T00350012  RH  086%=      5-min Rain = 0
KONS 241255Z 35007KT 03/01 A3005 RMK A01 T00340012  RH  086%=      5-min Rain = 0
KONS 241300Z 35008KT 03/01 A3005 RMK A01 T00340012  RH  086%=      5-min Rain = 0
KONS 241305Z 35009KT 04/01 A3005 RMK A01 T00350013  RH  087%=      5-min Rain = 0
KONS 241310Z 35009KT 04/01 A3006 RMK A01 T00360014  RH  087%=      5-min Rain = 0
KONS 241315Z 35009KT 04/02 A3006 RMK A01 T00380016  RH  086%=      5-min Rain = 0
KONS 241320Z 35010KT 04/02 A3006 RMK A01 T00410017  RH  085%=      5-min Rain = 0
KONS 241325Z 35010KT 04/02 A3006 RMK A01 T00430017  RH  084%=      5-min Rain = 0
KONS 241330Z 35010KT 05/02 A3006 RMK A01 T00450018  RH  084%=      5-min Rain = 0
KONS 241335Z 36010KT 05/02 A3006 RMK A01 T00480020  RH  083%=      5-min Rain = 0
KONS 241340Z 36010KT 05/02 A3006 RMK A01 T00510021  RH  081%=      5-min Rain = 0
KONS 241345Z 00010KT 06/02 A3006 RMK A01 T00550022  RH  081%=      5-min Rain = 0
KONS 241350Z 36011KT 06/02 A3007 RMK A01 T00580023  RH  080%=      5-min Rain = 0
KONS 241355Z 00012KT 06/02 A3007 RMK A01 T00610024  RH  079%=      5-min Rain = 0
KONS 241400Z 00011KT 06/02 A3007 RMK A01 T00620024  RH  078%=      5-min Rain = 0
KONS 241405Z 01011KT 07/03 A3007 RMK A01 T00650026  RH  077%=      5-min Rain = 0
KONS 241410Z 00012G17KT 07/03 A3007 RMK A01 T00680027  RH  076%=      5-min Rain = 0
KONS 241415Z 01012KT 07/03 A3007 RMK A01 T00700027  RH  075%=      5-min Rain = 0
KONS 241420Z 01012KT 07/03 A3008 RMK A01 T00720027  RH  074%=      5-min Rain = 0
KONS 241425Z 01011KT 08/03 A3008 RMK A01 T00750029  RH  074%=      5-min Rain = 0
KONS 241430Z 01012KT 08/03 A3008 RMK A01 T00780028  RH  072%=      5-min Rain = 0
KONS 241435Z 01011KT 08/03 A3008 RMK A01 T00810030  RH  071%=      5-min Rain = 0
KONS 241440Z 02010KT 08/03 A3009 RMK A01 T00840030  RH  070%=      5-min Rain = 0
KONS 241445Z 02011KT 09/03 A3009 RMK A01 T00870030  RH  068%=      5-min Rain = 0
KONS 241450Z 01010KT 09/03 A3009 RMK A01 T00890030  RH  067%=      5-min Rain = 0
KONS 241455Z 02010KT 09/03 A3009 RMK A01 T00920031  RH  066%=      5-min Rain = 0
KONS 241500Z 02011KT 09/03 A3009 RMK A01 T00940030  RH  065%=      5-min Rain = 0
KONS 241505Z 03010KT 10/03 A3009 RMK A01 T00960030  RH  065%=      5-min Rain = 0
KONS 241510Z 02010KT 10/03 A301 RMK A01 T00980031  RH  064%=      5-min Rain = 0
KONS 241515Z 03009KT 10/03 A301 RMK A01 T01000032  RH  063%=      5-min Rain = 0
KONS 241520Z 04009KT 10/03 A301 RMK A01 T01020032  RH  062%=      5-min Rain = 0
KONS 241525Z 03009KT 10/03 A301 RMK A01 T01040033  RH  062%=      5-min Rain = 0
KONS 241530Z 01008KT 11/04 A301 RMK A01 T01100037  RH  061%=      5-min Rain = 0
KONS 241535Z 02009KT 11/03 A3011 RMK A01 T01110034  RH  060%=      5-min Rain = 0
KONS 241540Z 02009KT 11/03 A3011 RMK A01 T01130034  RH  059%=      5-min Rain = 0
KONS 241545Z 03008KT 11/03 A3011 RMK A01 T01140034  RH  058%=      5-min Rain = 0
KONS 241550Z 03008KT 12/03 A301 RMK A01 T01160034  RH  058%=      5-min Rain = 0
KONS 241555Z 03008KT 12/04 A301 RMK A01 T01190036  RH  057%=      5-min Rain = 0
KONS 241600Z 05008KT 12/04 A301 RMK A01 T01240035  RH  055%=      5-min Rain = 0
KONS 241605Z 05008KT 13/04 A301 RMK A01 T01260035  RH  055%=      5-min Rain = 0
KONS 241610Z 05008KT 13/03 A301 RMK A01 T01260034  RH  054%=      5-min Rain = 0
KONS 241615Z 05007KT 13/03 A301 RMK A01 T01290033  RH  053%=      5-min Rain = 0
KONS 241620Z 05008KT 13/04 A301 RMK A01 T01300035  RH  053%=      5-min Rain = 0
KONS 241625Z 05007KT 14/03 A301 RMK A01 T01350034  RH  051%=      5-min Rain = 0
KONS 241630Z 05007KT 14/04 A301 RMK A01 T01370036  RH  051%=      5-min Rain = 0
KONS 241635Z 05007KT 14/04 A301 RMK A01 T01380036  RH  051%=      5-min Rain = 0
KONS 241640Z 04007KT 14/03 A301 RMK A01 T01400033  RH  049%=      5-min Rain = 0
KONS 241645Z 03008KT 14/03 A301 RMK A01 T01410031  RH  048%=      5-min Rain = 0
KONS 241650Z 04007KT 14/03 A301 RMK A01 T01410032  RH  049%=      5-min Rain = 0
KONS 241655Z 04006KT 14/03 A301 RMK A01 T01430030  RH  047%=      5-min Rain = 0
KONS 241700Z 03006KT 15/04 A301 RMK A01 T01470035  RH  048%=      5-min Rain = 0
KONS 241705Z 05006KT 15/03 A301 RMK A01 T01470030  RH  046%=      5-min Rain = 0
KONS 241710Z 05005KT 15/03 A301 RMK A01 T01460030  RH  046%=      5-min Rain = 0
KONS 241715Z 02006KT 15/03 A301 RMK A01 T01480033  RH  047%=      5-min Rain = 0
KONS 241720Z 05005KT 15/03 A301 RMK A01 T01480033  RH  047%=      5-min Rain = 0
KONS 241725Z 04005KT 15/03 A301 RMK A01 T01500032  RH  046%=      5-min Rain = 0
KONS 241730Z 04005KT 15/04 A301 RMK A01 T01510035  RH  046%=      5-min Rain = 0
KONS 241735Z 06004KT 15/03 A301 RMK A01 T01540034  RH  045%=      5-min Rain = 0
KONS 241740Z 04004KT 15/03 A301 RMK A01 T01540033  RH  045%=      5-min Rain = 0
KONS 241745Z 03005KT 15/03 A301 RMK A01 T01520032  RH  045%=      5-min Rain = 0
KONS 241750Z 05004KT 15/03 A301 RMK A01 T01540032  RH  044%=      5-min Rain = 0
KONS 241755Z 05003KT 16/03 A301 RMK A01 T01560032  RH  044%=      5-min Rain = 0
KONS 241800Z 02003KT 16/03 A301 RMK A01 T01570031  RH  043%=      5-min Rain = 0
KONS 241805Z 05003KT 16/03 A301 RMK A01 T01580032  RH  043%=      5-min Rain = 0
KONS 241810Z 01003KT 16/03 A301 RMK A01 T01600031  RH  043%=      5-min Rain = 0
KONS 241815Z 01003KT 16/03 A301 RMK A01 T01630032  RH  042%=      5-min Rain = 0
KONS 241820Z 35004KT 16/03 A301 RMK A01 T01610031  RH  042%=      5-min Rain = 0
KONS 241825Z 35004KT 16/03 A301 RMK A01 T01610029  RH  042%=      5-min Rain = 0
KONS 241830Z 01003KT 16/03 A301 RMK A01 T01630025  RH  040%=      5-min Rain = 0
KONS 241835Z 01003KT 16/02 A301 RMK A01 T01640023  RH  039%=      5-min Rain = 0
KONS 241840Z 02003KT 17/03 A301 RMK A01 T01650027  RH  040%=      5-min Rain = 0
KONS 241845Z 00005KT 17/03 A301 RMK A01 T01670026  RH  039%=      5-min Rain = 0
KONS 241850Z 35004KT 17/02 A301 RMK A01 T01670018  RH  037%=      5-min Rain = 0
KONS 241855Z 35002KT 17/02 A3009 RMK A01 T01680022  RH  038%=      5-min Rain = 0
KONS 241900Z 02002KT 17/03 A3009 RMK A01 T01680025  RH  039%=      5-min Rain = 0
KONS 241905Z 05002KT 17/03 A3009 RMK A01 T01700027  RH  039%=      5-min Rain = 0
KONS 241910Z 03003KT 17/03 A3009 RMK A01 T01730026  RH  038%=      5-min Rain = 0
KONS 241915Z 05003KT 18/02 A3009 RMK A01 T01770024  RH  036%=      5-min Rain = 0
KONS 241920Z 03004KT 18/02 A3008 RMK A01 T01790021  RH  035%=      5-min Rain = 0
KONS 241925Z 04003KT 18/02 A3009 RMK A01 T01790015  RH  034%=      5-min Rain = 0
KONS 241930Z 35001KT 18/01 A3008 RMK A01 T01790012  RH  033%=      5-min Rain = 0
KONS 241935Z 07002KT 18/02 A3008 RMK A01 T01820015  RH  033%=      5-min Rain = 0
KONS 241940Z 01004KT 18/02 A3008 RMK A01 T01830015  RH  033%=      5-min Rain = 0
KONS 241945Z 00003KT 18/02 A3008 RMK A01 T01840017  RH  033%=      5-min Rain = 0
KONS 241950Z 01003KT 19/01 A3007 RMK A01 T01850013  RH  032%=      5-min Rain = 0
KONS 241955Z 34002KT 18/01 A3007 RMK A01 T01840010  RH  031%=      5-min Rain = 0
KONS 242000Z 35003KT 19/01 A3007 RMK A01 T01860012  RH  032%=      5-min Rain = 0
KONS 242005Z 35001KT 18/01 A3007 RMK A01 T01840011  RH  032%=      5-min Rain = 0
KONS 242010Z 02003KT 19/02 A3007 RMK A01 T01880015  RH  032%=      5-min Rain = 0
KONS 242015Z 00003KT 19/02 A3007 RMK A01 T01890016  RH  032%=      5-min Rain = 0
KONS 242020Z 00003KT 19/02 A3006 RMK A01 T01900017  RH  032%=      5-min Rain = 0
KONS 242025Z 35001KT 19/01 A3006 RMK A01 T01890014  RH  031%=      5-min Rain = 0
KONS 242030Z 19000KT 19/02 A3006 RMK A01 T01940015  RH  031%=      5-min Rain = 0
KONS 242035Z 22003KT 19/02 A3006 RMK A01 T01940015  RH  031%=      5-min Rain = 0
KONS 242040Z 23003KT 19/02 A3006 RMK A01 T01930016  RH  031%=      5-min Rain = 0
KONS 242045Z 23003KT 19/02 A3006 RMK A01 T01930018  RH  031%=      5-min Rain = 0
KONS 242050Z 19003KT 20/02 A3006 RMK A01 T01970020  RH  031%=      5-min Rain = 0
KONS 242055Z 14002KT 20/02 A3005 RMK A01 T01970017  RH  031%=      5-min Rain = 0
KONS 242100Z 11002KT 20/02 A3005 RMK A01 T01970015  RH  030%=      5-min Rain = 0
KONS 242105Z 15005KT 20/02 A3005 RMK A01 T01980019  RH  031%=      5-min Rain = 0
KONS 242110Z 11003KT 20/02 A3005 RMK A01 T01980016  RH  030%=      5-min Rain = 0
KONS 242115Z 16002KT 20/02 A3005 RMK A01 T01960016  RH  030%=      5-min Rain = 0
KONS 242120Z 17002KT 20/02 A3006 RMK A01 T01980016  RH  030%=      5-min Rain = 0
KONS 242125Z 19002KT 20/01 A3006 RMK A01 T01960013  RH  030%=      5-min Rain = 0
KONS 242130Z 13002KT 20/02 A3005 RMK A01 T01950015  RH  030%=      5-min Rain = 0
KONS 242135Z 07003KT 20/02 A3005 RMK A01 T02000018  RH  030%=      5-min Rain = 0
KONS 242140Z 05003KT 20/01 A3005 RMK A01 T02020013  RH  029%=      5-min Rain = 0
KONS 242145Z 06003KT 20/01 A3005 RMK A01 T02000012  RH  029%=      5-min Rain = 0
KONS 242150Z 05002KT 20/01 A3005 RMK A01 T02010012  RH  029%=      5-min Rain = 0
KONS 242155Z 06002KT 20/01 A3005 RMK A01 T02000011  RH  029%=      5-min Rain = 0
KONS 242200Z 09001KT 20/01 A3005 RMK A01 T02000010  RH  028%=      5-min Rain = 0
KONS 242205Z 22001KT 20/01 A3005 RMK A01 T02020005  RH  027%=      5-min Rain = 0
KONS 242210Z 23001KT 21/01 A3005 RMK A01 T02100008  RH  026%=      5-min Rain = 0
KONS 242215Z 15002KT 21/01 A3005 RMK A01 T02130006  RH  026%=      5-min Rain = 0
KONS 242220Z 18005G10KT 21/01 A3005 RMK A01 T02120011  RH  027%=      5-min Rain = 0
KONS 242225Z 21007KT 21/01 A3005 RMK A01 T02110009  RH  026%=      5-min Rain = 0
KONS 242230Z 26005KT 21/00 A3005 RMK A01 T02110001  RH  025%=      5-min Rain = 0
KONS 242235Z 22004KT 21/M00 A3004 RMK A01 T02131001  RH  024%=      5-min Rain = 0
KONS 242240Z 22007KT 21/M00 A3004 RMK A01 T02121001  RH  024%=      5-min Rain = 0
KONS 242245Z 20009KT 21/01 A3003 RMK A01 T02110005  RH  026%=      5-min Rain = 0
KONS 242250Z 20008KT 21/00 A3003 RMK A01 T02090003  RH  026%=      5-min Rain = 0
KONS 242255Z 20006KT 21/00 A3003 RMK A01 T02100002  RH  025%=      5-min Rain = 0
KONS 242300Z 22007KT 21/M00 A3004 RMK A01 T02101001  RH  025%=      5-min Rain = 0
KONS 242305Z 22008KT 21/00 A3004 RMK A01 T02110003  RH  025%=      5-min Rain = 0
KONS 242310Z 22006KT 21/00 A3004 RMK A01 T02110004  RH  025%=      5-min Rain = 0
KONS 242315Z 23005KT 21/00 A3004 RMK A01 T02130001  RH  025%=      5-min Rain = 0
KONS 242320Z 22007KT 21/01 A3004 RMK A01 T02140005  RH  025%=      5-min Rain = 0
KONS 242325Z 22007KT 21/M00 A3004 RMK A01 T02121001  RH  025%=      5-min Rain = 0
KONS 242330Z 22007KT 21/00 A3004 RMK A01 T02110004  RH  025%=      5-min Rain = 0
KONS 242335Z 20006KT 21/01 A3004 RMK A01 T02110010  RH  027%=      5-min Rain = 0
KONS 242340Z 23006KT 21/M00 A3004 RMK A01 T02111001  RH  025%=      5-min Rain = 0
KONS 242345Z 18005KT 21/01 A3004 RMK A01 T02100007  RH  026%=      5-min Rain = 0
KONS 242350Z 17006KT 21/01 A3003 RMK A01 T02090014  RH  028%=      5-min Rain = 0
KONS 242355Z 19006KT 21/01 A3003 RMK A01 T02080009  RH  027%=      5-min Rain = 0
KONS 250000Z 18005KT 21/02 A3003 RMK A01 T02060020  RH  029%=      5-min Rain = 0
KONS 250005Z 19005KT 21/02 A3003 RMK A01 T02050022  RH  030%=      5-min Rain = 0
KONS 250010Z 18004KT 20/03 A3003 RMK A01 T02030029  RH  032%=      5-min Rain = 0
KONS 250015Z 18006KT 20/02 A3003 RMK A01 T02010015  RH  029%=      5-min Rain = 0
KONS 250020Z 18005KT 20/02 A3003 RMK A01 T01990017  RH  030%=      5-min Rain = 0
KONS 250025Z 18005KT 20/02 A3003 RMK A01 T01950024  RH  032%=      5-min Rain = 0
KONS 250030Z 16005KT 19/02 A3003 RMK A01 T01920019  RH  032%=      5-min Rain = 0
KONS 250035Z 16006KT 19/02 A3003 RMK A01 T01860022  RH  034%=      5-min Rain = 0
KONS 250040Z 16006KT 18/02 A3003 RMK A01 T01800020  RH  035%=      5-min Rain = 0
KONS 250045Z 15006KT 18/02 A3003 RMK A01 T01760019  RH  035%=      5-min Rain = 0
KONS 250050Z 15007KT 17/02 A3003 RMK A01 T01700020  RH  037%=      5-min Rain = 0
KONS 250055Z 15007KT 16/02 A3004 RMK A01 T01640017  RH  037%=      5-min Rain = 0
KONS 250100Z 15006KT 16/02 A3004 RMK A01 T01630015  RH  037%=      5-min Rain = 0
KONS 250105Z 14005KT 16/02 A3004 RMK A01 T01590016  RH  038%=      5-min Rain = 0
KONS 250110Z 15006KT 16/01 A3004 RMK A01 T01570013  RH  038%=      5-min Rain = 0
KONS 250115Z 14007KT 15/01 A3004 RMK A01 T01540012  RH  038%=      5-min Rain = 0
KONS 250120Z 14008KT 15/01 A3004 RMK A01 T01470010  RH  040%=      5-min Rain = 0
KONS 250125Z 14009KT 13/01 A3004 RMK A01 T01340010  RH  043%=      5-min Rain = 0
KONS 250130Z 14008KT 13/01 A3004 RMK A01 T01280011  RH  045%=      5-min Rain = 0
KONS 250135Z 14009KT 13/01 A3004 RMK A01 T01260010  RH  046%=      5-min Rain = 0
KONS 250140Z 14009KT 13/01 A3004 RMK A01 T01260008  RH  045%=      5-min Rain = 0
KONS 250145Z 13009KT 13/01 A3004 RMK A01 T01280006  RH  044%=      5-min Rain = 0
KONS 250150Z 13009KT 13/01 A3005 RMK A01 T01310005  RH  043%=      5-min Rain = 0
KONS 250155Z 13009KT 13/01 A3005 RMK A01 T01320008  RH  043%=      5-min Rain = 0
KONS 250200Z 13009KT 13/01 A3005 RMK A01 T01270010  RH  045%=      5-min Rain = 0
KONS 250205Z 13009KT 12/01 A3005 RMK A01 T01220010  RH  047%=      5-min Rain = 0
KONS 250210Z 13009KT 12/01 A3005 RMK A01 T01210009  RH  047%=      5-min Rain = 0
KONS 250215Z 12008KT 13/01 A3005 RMK A01 T01270009  RH  045%=      5-min Rain = 0
KONS 250220Z 12008KT 13/01 A3005 RMK A01 T01280010  RH  045%=      5-min Rain = 0
KONS 250225Z 12008KT 13/01 A3006 RMK A01 T01250011  RH  046%=      5-min Rain = 0
KONS 250230Z 12008KT 12/01 A3006 RMK A01 T01220012  RH  048%=      5-min Rain = 0
KONS 250235Z 11006KT 12/01 A3006 RMK A01 T01220012  RH  048%=      5-min Rain = 0
KONS 250240Z 12006KT 12/01 A3006 RMK A01 T01240013  RH  047%=      5-min Rain = 0
KONS 250245Z 12007KT 12/02 A3007 RMK A01 T01220016  RH  049%=      5-min Rain = 0
KONS 250250Z 13007KT 12/02 A3007 RMK A01 T01210015  RH  049%=      5-min Rain = 0
KONS 250255Z 13006KT 12/02 A3007 RMK A01 T01190015  RH  049%=      5-min Rain = 0
KONS 250300Z 14006KT 12/02 A3008 RMK A01 T01170015  RH  050%=      5-min Rain = 0
KONS 250305Z 14006KT 12/01 A3008 RMK A01 T01160012  RH  049%=      5-min Rain = 0
KONS 250310Z 14006KT 12/01 A3008 RMK A01 T01150009  RH  049%=      5-min Rain = 0
KONS 250315Z 14006KT 11/01 A3008 RMK A01 T01130008  RH  049%=      5-min Rain = 0
KONS 250320Z 14005KT 11/01 A3008 RMK A01 T01110008  RH  049%=      5-min Rain = 0
KONS 250325Z 14006KT 11/01 A3009 RMK A01 T01110007  RH  049%=      5-min Rain = 0
KONS 250330Z 14007KT 11/00 A3009 RMK A01 T01050004  RH  050%=      5-min Rain = 0
KONS 250335Z 14007KT 11/00 A3009 RMK A01 T01060003  RH  050%=      5-min Rain = 0
KONS 250340Z 15007KT 11/00 A3009 RMK A01 T01070003  RH  049%=      5-min Rain = 0
KONS 250345Z 16006KT 10/01 A301 RMK A01 T01020005  RH  052%=      5-min Rain = 0
KONS 250350Z 18006KT 10/00 A301 RMK A01 T00950004  RH  054%=      5-min Rain = 0
KONS 250355Z 20005KT 09/00 A301 RMK A01 T00930004  RH  054%=      5-min Rain = 0
KONS 250400Z 20005KT 09/00 A301 RMK A01 T00920004  RH  054%=      5-min Rain = 0
KONS 250405Z 21005KT 09/00 A3011 RMK A01 T00910004  RH  055%=      5-min Rain = 0
KONS 250410Z 21004KT 09/01 A3011 RMK A01 T00870007  RH  058%=      5-min Rain = 0
KONS 250415Z 25005KT 09/01 A3011 RMK A01 T00860007  RH  058%=      5-min Rain = 0
KONS 250420Z 24004KT 08/01 A3012 RMK A01 T00820007  RH  060%=      5-min Rain = 0
KONS 250425Z 24005KT 09/01 A3012 RMK A01 T00900006  RH  056%=      5-min Rain = 0
KONS 250430Z 20004KT 09/01 A3012 RMK A01 T00880010  RH  059%=      5-min Rain = 0
KONS 250435Z 18003KT 08/01 A3012 RMK A01 T00810010  RH  062%=      5-min Rain = 0
KONS 250440Z 13003KT 08/01 A3012 RMK A01 T00780009  RH  062%=      5-min Rain = 0
KONS 250445Z 12003KT 08/01 A3012 RMK A01 T00800008  RH  061%=      5-min Rain = 0
KONS 250450Z 22002KT 08/01 A3013 RMK A01 T00790008  RH  061%=      5-min Rain = 0
KONS 250455Z 21002KT 09/00 A3013 RMK A01 T00890004  RH  056%=      5-min Rain = 0

Page generated in 0.0231 seconds.